Time;durP1;ratioP1;P1;durP2;ratioP2;P2;SDS_P1;SDS_P2;PMS_P1;PMS_P2;Temp;Humidity;BMP_temperature;BMP_pressure;BME280_temperature;BME280_humidity;BME280_pressure;Samples;Min_cycle;Max_cycle;Signal;HPM_P1;HPM_P2
2022/02/05 00:01:11;;;;;;;8.53;3.83;;;-0.60;99.90;-0.80;96436.00;;;;5081225;28;20654;-64
2022/02/05 00:04:06;;;;;;;5.30;4.23;;;-0.50;99.90;-0.60;96438.00;;;;5079952;28;20433;-62
2022/02/05 00:06:55;;;;;;;5.40;4.70;;;-0.40;99.90;-0.60;96435.00;;;;5079660;28;20436;-64
2022/02/05 00:10:02;;;;;;;5.23;3.93;;;-0.40;99.90;-0.90;96435.00;;;;5071670;28;20437;-64
2022/02/05 00:13:08;;;;;;;7.17;4.53;;;-0.40;99.90;-0.80;96425.00;;;;5082966;28;20425;-64
2022/02/05 00:16:13;;;;;;;4.87;4.33;;;-0.30;99.90;-0.90;96423.00;;;;5083290;28;20939;-63
2022/02/05 00:38:24;;;;;;;4.80;3.77;;;-0.40;99.90;-0.90;96418.00;;;;5087844;28;20424;-64
2022/02/05 00:41:16;;;;;;;5.13;3.80;;;-0.40;99.90;-0.60;96421.00;;;;5088744;28;20482;-63
2022/02/05 00:44:05;;;;;;;4.33;3.60;;;-0.30;99.90;-0.30;96421.00;;;;5083695;28;20483;-64
2022/02/05 00:46:55;;;;;;;8.53;4.27;;;-0.20;99.90;-0.30;96419.00;;;;5086809;28;20939;-64
2022/02/05 00:49:48;;;;;;;4.97;4.20;;;-0.10;99.90;0.00;96425.00;;;;5084113;28;21008;-64
2022/02/05 00:52:37;;;;;;;4.27;3.87;;;0.10;99.90;-0.20;96428.00;;;;5082557;28;20503;-64
2022/02/05 00:55:29;;;;;;;8.33;5.00;;;0.10;99.90;-0.40;96422.00;;;;5082461;28;20436;-63
2022/02/05 00:58:18;;;;;;;4.97;4.33;;;0.10;99.90;-0.20;96422.00;;;;5082267;28;20432;-63
2022/02/05 01:01:09;;;;;;;4.70;3.43;;;0.10;99.90;-0.30;96425.00;;;;5082848;28;20481;-64
2022/02/05 01:03:59;;;;;;;7.97;4.00;;;-0.20;99.90;-0.40;96425.00;;;;5082937;28;20576;-64
2022/02/05 01:06:48;;;;;;;4.57;3.70;;;0.10;99.90;-0.40;96435.00;;;;5086648;28;20421;-63
2022/02/05 01:09:37;;;;;;;5.67;3.53;;;0.10;99.90;-0.80;96430.00;;;;5079129;28;20437;-63
2022/02/05 01:12:29;;;;;;;6.53;4.20;;;0.10;99.90;-0.40;96449.00;;;;5081982;28;20437;-63
2022/02/05 01:15:22;;;;;;;6.23;4.13;;;0.10;99.90;-0.50;96434.00;;;;5087333;28;20436;-64
2022/02/05 01:18:13;;;;;;;6.17;4.23;;;0.00;99.90;-0.40;96446.00;;;;5087091;28;20987;-64
2022/02/05 01:21:10;;;;;;;5.60;4.03;;;0.00;99.90;-0.20;96453.00;;;;5085553;28;20475;-64
2022/02/05 01:24:03;;;;;;;4.03;3.63;;;0.00;99.90;-0.30;96452.00;;;;5086165;28;20422;-64
2022/02/05 01:26:58;;;;;;;4.97;4.23;;;0.10;99.90;-0.20;96456.00;;;;5076596;28;20436;-63
2022/02/05 01:30:02;;;;;;;7.70;4.20;;;0.10;99.90;-0.20;96450.00;;;;5076204;28;20455;-64
2022/02/05 01:33:02;;;;;;;6.73;4.17;;;0.20;99.90;-0.20;96463.00;;;;5083131;28;20441;-64
2022/02/05 01:36:08;;;;;;;10.40;2.73;;;0.10;99.90;-0.60;96458.00;;;;5085959;28;20437;-64
2022/02/05 01:54:41;;;;;;;5.90;3.73;;;0.10;99.90;-0.30;96478.00;;;;5080466;28;20436;-64
2022/02/05 01:57:45;;;;;;;4.47;3.63;;;0.10;99.90;-0.20;96480.00;;;;5086528;28;20448;-63
2022/02/05 02:07:11;;;;;;;6.13;3.80;;;0.10;99.90;-0.50;96465.00;;;;4984128;28;20446;-64
2022/02/05 02:10:15;;;;;;;5.17;3.87;;;0.00;99.90;-0.80;96483.00;;;;4983876;28;20933;-63
2022/02/05 02:16:23;;;;;;;9.00;4.10;;;-0.10;99.90;-0.40;96461.00;;;;5068759;28;20494;-63
2022/02/05 02:19:21;;;;;;;3.07;2.77;;;-0.10;99.90;-0.70;96467.00;;;;5086411;28;21040;-64
2022/02/05 02:22:17;;;;;;;4.10;3.67;;;-0.10;99.90;-1.10;96459.00;;;;5084576;28;20475;-63
2022/02/05 02:25:16;;;;;;;4.80;3.50;;;-0.20;99.90;-0.70;96469.00;;;;5085027;28;20448;-64
2022/02/05 02:28:11;;;;;;;4.37;3.97;;;-0.20;99.90;-0.60;96467.00;;;;5084694;28;20962;-64
2022/02/05 02:31:05;;;;;;;3.93;3.07;;;-0.20;99.90;-0.50;96476.00;;;;5077935;28;20475;-64
2022/02/05 02:33:57;;;;;;;4.80;3.80;;;-0.20;99.90;-0.70;96480.00;;;;5085051;28;20440;-64
2022/02/05 02:36:51;;;;;;;3.17;2.97;;;-0.20;99.90;-0.90;96494.00;;;;5092721;28;20803;-64
2022/02/05 02:39:56;;;;;;;3.57;3.27;;;-0.20;99.90;-1.00;96480.00;;;;5091524;28;20429;-64
2022/02/05 02:42:49;;;;;;;4.87;3.50;;;-0.30;99.90;-1.20;96485.00;;;;5093675;28;20796;-64
2022/02/05 02:45:40;;;;;;;4.80;4.23;;;-0.30;99.90;-1.00;96487.00;;;;5093387;28;20723;-64
2022/02/05 02:48:29;;;;;;;6.87;2.90;;;-0.30;99.90;-1.00;96480.00;;;;5090780;28;20433;-64
2022/02/05 02:57:33;;;;;;;5.37;3.90;;;-0.40;99.90;-0.40;96487.00;;;;5085072;28;20433;-64
2022/02/05 03:00:23;;;;;;;7.17;4.17;;;-0.30;99.90;-0.50;96503.00;;;;5083963;28;20604;-64
2022/02/05 03:03:12;;;;;;;5.03;3.50;;;-0.40;99.90;-0.10;96498.00;;;;5084584;28;20426;-64
2022/02/05 03:06:00;;;;;;;4.07;3.60;;;-0.30;99.90;0.00;96498.00;;;;5082356;28;20442;-63
2022/02/05 03:08:50;;;;;;;6.83;3.90;;;-0.30;99.90;0.00;96493.00;;;;5079979;28;20418;-64
2022/02/05 03:11:39;;;;;;;8.47;4.07;;;-0.30;99.90;-0.10;96502.00;;;;5077774;28;20453;-63
2022/02/05 03:14:29;;;;;;;7.53;3.47;;;-0.30;99.90;-0.10;96495.00;;;;5084417;28;20430;-64
2022/02/05 03:17:20;;;;;;;4.47;3.53;;;-0.20;99.90;-0.10;96480.00;;;;5084917;28;20429;-63
2022/02/05 03:20:10;;;;;;;5.07;4.57;;;-0.20;99.90;-0.30;96492.00;;;;5084226;28;20417;-64
2022/02/05 03:23:00;;;;;;;4.30;2.90;;;-0.30;99.90;-0.90;96486.00;;;;5083959;28;20426;-63
2022/02/05 03:25:49;;;;;;;4.63;3.40;;;-0.40;99.90;-1.10;96500.00;;;;5083809;28;20440;-63
2022/02/05 03:28:38;;;;;;;4.47;3.57;;;-0.50;99.90;-0.70;96498.00;;;;5071366;28;20430;-64
2022/02/05 03:31:28;;;;;;;4.53;3.50;;;-0.50;99.90;-0.60;96505.00;;;;5071700;28;20457;-63
2022/02/05 03:34:17;;;;;;;6.10;4.13;;;-0.50;99.90;-0.20;96497.00;;;;5074128;28;20616;-64
2022/02/05 03:37:07;;;;;;;5.30;3.33;;;-0.50;99.90;-0.50;96509.00;;;;5087894;28;20807;-64
2022/02/05 03:39:56;;;;;;;2.40;2.20;;;-0.50;99.90;-1.50;96509.00;;;;5084818;28;20947;-63
2022/02/05 03:42:44;;;;;;;3.90;3.47;;;-0.60;99.90;-1.20;96514.00;;;;5084984;28;20450;-64
2022/02/05 03:45:34;;;;;;;4.87;2.87;;;-0.80;99.90;-0.90;96513.00;;;;5092766;28;20433;-63
2022/02/05 03:48:24;;;;;;;7.07;4.03;;;-0.80;99.90;-0.60;96517.00;;;;5084019;28;20433;-64
2022/02/05 03:51:13;;;;;;;3.83;3.53;;;-0.70;99.90;-0.70;96514.00;;;;5081056;28;20445;-63
2022/02/05 03:54:01;;;;;;;4.13;3.13;;;-0.70;99.90;-1.00;96517.00;;;;5075543;28;20437;-63
2022/02/05 03:56:51;;;;;;;6.87;4.27;;;-0.80;99.90;-0.90;96521.00;;;;5073339;28;20441;-63
2022/02/05 03:59:39;;;;;;;5.27;3.53;;;-0.80;99.90;-0.70;96516.00;;;;5077628;28;20952;-63
2022/02/05 04:02:28;;;;;;;4.03;3.60;;;-0.80;99.90;-0.90;96525.00;;;;5082753;28;20996;-64
2022/02/05 04:05:19;;;;;;;4.43;3.40;;;-0.80;99.90;-1.40;96518.00;;;;5073998;28;20425;-64
2022/02/05 04:08:10;;;;;;;6.23;4.40;;;-0.90;99.90;-0.90;96531.00;;;;5084616;28;20421;-64
2022/02/05 04:11:05;;;;;;;7.00;3.83;;;-0.90;99.90;-0.70;96531.00;;;;5084309;28;21118;-63
2022/02/05 04:17:03;;;;;;;22.10;12.57;;;-0.80;99.90;-1.00;96540.00;;;;5081530;28;20447;-63
2022/02/05 04:19:51;;;;;;;7.40;5.13;;;-0.80;99.90;-1.20;96523.00;;;;5081741;28;20436;-64
2022/02/05 04:22:42;;;;;;;6.53;3.43;;;-0.90;99.90;-1.20;96535.00;;;;5080325;28;20811;-63
2022/02/05 04:25:31;;;;;;;7.23;3.60;;;-1.00;99.90;-0.90;96544.00;;;;5081140;28;20438;-64
2022/02/05 04:28:19;;;;;;;11.30;4.27;;;-1.00;99.90;-0.80;96543.00;;;;5084081;28;20429;-64
2022/02/05 04:31:09;;;;;;;4.67;3.00;;;-1.00;99.90;-1.20;96535.00;;;;5076252;28;20476;-64
2022/02/05 04:33:58;;;;;;;5.23;4.40;;;-1.00;99.90;-1.10;96555.00;;;;5084421;28;20430;-64
2022/02/05 04:36:47;;;;;;;3.83;3.47;;;-1.00;99.90;-1.00;96565.00;;;;5095094;28;20435;-64
2022/02/05 04:39:44;;;;;;;4.50;3.70;;;-1.10;99.90;-1.10;96555.00;;;;5083182;28;20421;-62
2022/02/05 04:42:42;;;;;;;4.33;3.37;;;-1.00;99.90;-1.30;96560.00;;;;5094506;28;20488;-64
2022/02/05 04:48:57;;;;;;;3.70;2.93;;;-1.20;99.90;-1.10;96573.00;;;;5095878;28;20433;-63
2022/02/05 04:58:02;;;;;;;5.37;2.97;;;-1.20;99.90;-1.60;96587.00;;;;5095697;27;20631;-65
2022/02/05 05:01:04;;;;;;;3.30;3.00;;;-1.20;99.90;-1.10;96588.00;;;;5098322;28;20458;-64
2022/02/05 05:04:04;;;;;;;5.40;3.27;;;-1.20;99.90;-1.00;96586.00;;;;5107316;28;20423;-64
2022/02/05 05:10:02;;;;;;;3.57;2.63;;;-1.20;99.90;-1.30;96592.00;;;;5089421;28;20941;-64
2022/02/05 05:12:58;;;;;;;8.67;2.80;;;-1.20;99.90;-1.00;96585.00;;;;5121318;28;20432;-64
2022/02/05 05:19:27;;;;;;;4.93;3.17;;;-1.20;99.90;-0.80;96614.00;;;;5088103;28;20439;-64
2022/02/05 05:22:17;;;;;;;3.87;2.83;;;-1.10;99.90;-1.00;96628.00;;;;5120338;28;20440;-64
2022/02/05 05:25:07;;;;;;;3.97;3.00;;;-1.10;99.90;-0.90;96641.00;;;;5120524;28;20419;-64
2022/02/05 05:27:57;;;;;;;4.93;3.57;;;-1.10;99.90;-1.10;96623.00;;;;5115147;28;20832;-63
2022/02/05 05:30:46;;;;;;;3.30;3.00;;;-1.20;99.90;-1.00;96633.00;;;;5120429;28;20950;-63
2022/02/05 05:33:35;;;;;;;4.13;3.37;;;-1.10;99.90;-1.40;96639.00;;;;5120882;28;20432;-64
2022/02/05 05:36:24;;;;;;;3.83;3.00;;;-1.20;99.90;-1.50;96644.00;;;;5131291;27;20704;-63
2022/02/05 05:39:14;;;;;;;3.20;2.77;;;-1.30;99.90;-1.40;96661.00;;;;5122418;27;20784;-64
2022/02/05 05:42:06;;;;;;;4.47;2.43;;;-1.30;99.90;-1.10;96669.00;;;;5129025;27;20460;-63
2022/02/05 05:45:19;;;;;;;4.67;2.93;;;-1.30;99.90;-0.80;96675.00;;;;5115433;28;20805;-63
2022/02/05 05:48:11;;;;;;;5.67;3.57;;;-1.20;99.90;-0.70;96676.00;;;;5125221;27;20791;-64
2022/02/05 05:50:59;;;;;;;3.07;2.77;;;-1.10;99.90;-0.70;96687.00;;;;5101143;28;20444;-63
2022/02/05 05:53:48;;;;;;;2.73;2.37;;;-1.00;99.90;-1.10;96687.00;;;;5120107;28;20470;-64
2022/02/05 05:56:38;;;;;;;2.13;1.93;;;-1.00;99.90;-1.70;96676.00;;;;5121360;28;20495;-63
2022/02/05 05:59:27;;;;;;;3.93;2.70;;;-1.10;99.90;-1.00;96703.00;;;;5120246;28;20424;-64
2022/02/05 06:02:17;;;;;;;3.30;3.00;;;-1.20;99.90;-0.90;96706.00;;;;5121040;28;20446;-63
2022/02/05 06:05:08;;;;;;;6.03;2.63;;;-1.10;99.90;-0.90;96710.00;;;;5110114;28;20699;-63
2022/02/05 06:07:57;;;;;;;5.07;4.13;;;-1.10;99.90;-0.50;96718.00;;;;5114344;28;20423;-63
2022/02/05 06:10:46;;;;;;;3.20;2.53;;;-1.00;99.90;-0.50;96713.00;;;;5105624;28;20444;-64
2022/02/05 06:13:36;;;;;;;2.93;2.73;;;-0.90;99.90;-0.50;96706.00;;;;5105356;28;20424;-64
2022/02/05 06:16:30;;;;;;;3.13;2.87;;;-0.90;99.90;-0.70;96713.00;;;;5108066;28;20456;-63
2022/02/05 06:19:21;;;;;;;2.67;2.47;;;-0.80;99.90;-0.80;96700.00;;;;5106709;28;20459;-63
2022/02/05 06:22:09;;;;;;;3.23;2.93;;;-0.80;99.90;-0.40;96720.00;;;;5105929;28;20979;-64
2022/02/05 06:24:58;;;;;;;3.10;2.77;;;-0.80;99.90;-0.60;96707.00;;;;5107272;28;20424;-63
2022/02/05 06:27:47;;;;;;;4.13;3.43;;;-0.70;99.90;-0.50;96726.00;;;;5107738;28;20417;-64
2022/02/05 06:30:36;;;;;;;4.03;2.40;;;-0.60;99.90;-0.20;96722.00;;;;5105051;28;20956;-64
2022/02/05 06:33:25;;;;;;;4.00;2.70;;;-0.60;99.90;0.10;96752.00;;;;5106756;28;20429;-65
2022/02/05 06:36:17;;;;;;;4.87;3.73;;;-0.40;99.90;0.30;96750.00;;;;5116153;27;20793;-65
2022/02/05 06:39:06;;;;;;;2.77;2.30;;;-0.30;99.90;0.60;96764.00;;;;5104498;27;20426;-64
2022/02/05 06:41:55;;;;;;;1.87;1.77;;;-0.10;99.90;1.20;96763.00;;;;5108934;27;20839;-64
2022/02/05 06:44:44;;;;;;;2.60;2.10;;;0.20;99.90;1.70;96778.00;;;;5108416;27;20953;-64
2022/02/05 06:47:34;;;;;;;4.53;1.53;;;0.60;99.90;2.20;96798.00;;;;5107574;27;20432;-65
2022/02/05 06:50:23;;;;;;;2.23;1.70;;;1.00;99.90;2.50;96804.00;;;;5100027;28;20463;-64
2022/02/05 06:53:13;;;;;;;2.77;1.90;;;1.40;99.90;3.50;96808.00;;;;5094711;28;20834;-64
2022/02/05 06:56:02;;;;;;;3.07;2.00;;;1.80;99.90;3.70;96823.00;;;;5085637;27;20456;-64
2022/02/05 06:58:51;;;;;;;1.63;1.53;;;2.20;99.90;4.30;96825.00;;;;5073951;27;20540;-64
2022/02/05 07:01:40;;;;;;;2.33;1.67;;;2.60;99.90;4.60;96836.00;;;;5077077;27;20908;-64
2022/02/05 07:04:29;;;;;;;2.20;1.33;;;3.00;99.90;4.80;96826.00;;;;5078774;27;21022;-65
2022/02/05 07:07:19;;;;;;;2.30;1.80;;;3.40;99.90;4.90;96828.00;;;;5077841;27;20811;-65
2022/02/05 07:10:10;;;;;;;1.60;1.47;;;3.70;99.90;4.80;96835.00;;;;5085250;27;20501;-65
2022/02/05 07:13:10;;;;;;;1.37;1.10;;;3.90;99.90;5.00;96847.00;;;;5098791;27;20807;-65
2022/02/05 07:16:05;;;;;;;1.37;1.27;;;4.20;99.90;5.10;96847.00;;;;5086295;27;20437;-65
2022/02/05 07:19:09;;;;;;;0.77;0.70;;;4.50;99.90;5.10;96847.00;;;;5085935;28;20437;-65
2022/02/05 07:21:58;;;;;;;1.00;1.00;;;4.60;99.90;5.20;96852.00;;;;5083797;28;20230;-65
2022/02/05 07:24:59;;;;;;;1.03;0.87;;;4.70;99.90;5.40;96854.00;;;;5085284;27;20382;-65
2022/02/05 07:30:58;;;;;;;0.93;0.90;;;5.10;99.90;6.50;96896.00;;;;5072583;28;20447;-65
2022/02/05 07:33:48;;;;;;;0.70;0.67;;;5.30;99.90;6.50;96887.00;;;;5077710;27;21450;-65
2022/02/05 07:36:37;;;;;;;1.47;1.00;;;5.40;99.90;6.60;96895.00;;;;5086923;28;20210;-66
2022/02/05 07:39:27;;;;;;;2.33;1.50;;;5.60;99.90;6.80;96904.00;;;;5084229;28;20210;-65
2022/02/05 07:42:17;;;;;;;1.70;1.60;;;5.60;99.90;7.00;96899.00;;;;5084093;28;20230;-65
2022/02/05 07:45:08;;;;;;;0.97;0.97;;;5.70;99.90;7.20;96897.00;;;;5084856;28;20263;-65
2022/02/05 07:47:57;;;;;;;0.87;0.80;;;5.40;99.90;7.30;96886.00;;;;5091159;28;20206;-65
2022/02/05 07:50:46;;;;;;;1.27;0.60;;;6.00;99.90;7.50;96891.00;;;;5086121;28;20234;-65
2022/02/05 07:53:36;;;;;;;1.07;0.77;;;6.20;99.90;7.70;96889.00;;;;5085056;28;20194;-66
2022/02/05 07:56:27;;;;;;;4.63;1.33;;;6.30;99.90;7.90;96890.00;;;;5090909;28;20677;-65
2022/02/05 07:59:17;;;;;;;1.00;0.80;;;7.70;99.90;8.00;96884.00;;;;5089754;28;20377;-66
2022/02/05 08:02:09;;;;;;;1.60;0.70;;;6.60;99.90;8.00;96884.00;;;;5087642;28;20259;-65
2022/02/05 08:04:58;;;;;;;1.13;0.93;;;6.70;99.90;7.80;96882.00;;;;5092271;28;20342;-67
2022/02/05 08:07:46;;;;;;;0.80;0.80;;;6.80;99.90;7.70;96902.00;;;;5093376;28;20206;-66
2022/02/05 08:10:39;;;;;;;1.83;0.87;;;6.90;99.90;8.00;96902.00;;;;5093194;28;20298;-65
2022/02/05 08:13:31;;;;;;;1.00;0.80;;;7.00;99.90;8.20;96898.00;;;;5091051;28;20199;-65
2022/02/05 08:16:39;;;;;;;0.73;0.73;;;7.00;99.90;8.30;96896.00;;;;5088074;27;20210;-64
2022/02/05 08:19:30;;;;;;;1.00;0.70;;;7.00;99.90;8.10;96896.00;;;;5086833;28;20210;-65
2022/02/05 08:22:33;;;;;;;0.70;0.70;;;7.10;99.90;8.30;96904.00;;;;5084408;28;20253;-65
2022/02/05 08:25:24;;;;;;;3.50;0.80;;;7.10;99.90;8.50;96895.00;;;;5085644;28;20627;-65
2022/02/05 08:28:13;;;;;;;0.93;0.67;;;7.20;99.90;8.50;96914.00;;;;5084750;28;20584;-66
2022/02/05 08:31:02;;;;;;;0.60;0.60;;;7.30;99.90;8.70;96911.00;;;;5082772;28;20427;-65
2022/02/05 08:33:52;;;;;;;2.30;0.80;;;7.40;99.90;8.70;96907.00;;;;5086765;28;20376;-65
2022/02/05 08:36:46;;;;;;;0.50;0.47;;;7.40;99.90;8.70;96909.00;;;;5077244;28;20826;-65
2022/02/05 08:39:35;;;;;;;12.07;2.17;;;7.50;99.90;8.80;96913.00;;;;5082732;28;20905;-65
2022/02/05 08:42:24;;;;;;;2.13;1.93;;;7.50;99.90;8.80;96905.00;;;;5085667;28;20726;-65
2022/02/05 08:45:13;;;;;;;3.13;0.67;;;7.60;98.10;8.90;96907.00;;;;5080631;27;20303;-65
2022/02/05 08:48:02;;;;;;;0.60;0.60;;;7.60;97.30;8.50;96890.00;;;;5082089;28;20251;-63
2022/02/05 08:50:51;;;;;;;0.93;0.80;;;7.70;96.70;8.50;96902.00;;;;5084327;28;20279;-64
2022/02/05 08:53:41;;;;;;;2.23;0.47;;;7.80;95.80;9.20;96896.00;;;;5073367;28;20304;-64
2022/02/05 08:56:31;;;;;;;0.50;0.40;;;7.90;94.20;9.60;96899.00;;;;5082233;28;20211;-64
2022/02/05 08:59:20;;;;;;;1.50;0.43;;;8.10;93.40;9.70;96892.00;;;;5082565;28;20882;-64
2022/02/05 09:02:14;;;;;;;0.30;0.20;;;8.30;91.20;9.70;96876.00;;;;5072070;28;20389;-68
2022/02/05 09:05:10;;;;;;;0.20;0.20;;;8.50;85.70;9.90;96872.00;;;;5078047;28;20210;-66
2022/02/05 09:07:59;;;;;;;0.30;0.30;;;8.70;81.50;10.00;96885.00;;;;5085353;28;20330;-64
2022/02/05 09:10:57;;;;;;;0.20;0.20;;;8.80;78.70;10.00;96883.00;;;;5084846;28;20229;-64
2022/02/05 09:13:59;;;;;;;1.80;0.40;;;8.90;77.40;10.40;96899.00;;;;5084575;28;20301;-65
2022/02/05 09:16:50;;;;;;;1.17;0.30;;;9.00;78.80;10.20;96909.00;;;;5084192;28;20207;-64
2022/02/05 09:19:39;;;;;;;2.00;0.50;;;9.10;74.20;10.50;96907.00;;;;5080625;28;20521;-66
2022/02/05 09:22:29;;;;;;;0.97;0.60;;;9.20;75.70;10.60;96918.00;;;;5085047;28;20696;-65
2022/02/05 09:25:21;;;;;;;0.70;0.30;;;9.30;74.30;10.60;96920.00;;;;5083554;28;20226;-65
2022/02/05 09:28:11;;;;;;;0.30;0.30;;;9.50;72.30;10.80;96938.00;;;;5082908;28;20202;-66
2022/02/05 09:31:24;;;;;;;0.30;0.30;;;9.50;71.30;10.70;96929.00;;;;5079162;28;20226;-64
2022/02/05 09:34:13;;;;;;;0.40;0.37;;;9.60;67.20;11.20;96951.00;;;;5090602;28;20212;-65
2022/02/05 09:37:02;;;;;;;0.20;0.20;;;9.70;67.20;10.60;96940.00;;;;5087814;28;20219;-65
2022/02/05 09:39:51;;;;;;;0.40;0.30;;;9.80;60.10;11.10;96943.00;;;;5087891;28;20235;-65
2022/02/05 09:42:49;;;;;;;0.30;0.30;;;9.90;60.70;11.10;96956.00;;;;5085202;28;21405;-64
2022/02/05 09:45:41;;;;;;;0.30;0.20;;;10.00;59.00;10.80;96946.00;;;;5091977;28;20211;-64
2022/02/05 09:48:32;;;;;;;1.40;0.30;;;10.10;56.90;11.10;96942.00;;;;5091233;28;20281;-63
2022/02/05 09:51:25;;;;;;;2.30;0.90;;;10.10;57.70;11.50;96954.00;;;;5090758;28;20230;-64
2022/02/05 09:54:41;;;;;;;0.47;0.30;;;10.20;57.60;11.70;96949.00;;;;5093695;28;20211;-64
2022/02/05 09:57:53;;;;;;;0.30;0.30;;;10.40;56.90;11.50;96954.00;;;;5097300;28;20217;-64
2022/02/05 10:01:13;;;;;;;0.70;0.53;;;10.50;54.90;11.10;96926.00;;;;5093209;28;20486;-65
2022/02/05 10:04:28;;;;;;;0.20;0.20;;;10.50;52.60;11.20;96974.00;;;;5098081;28;20207;-63
2022/02/05 10:07:54;;;;;;;1.17;0.50;;;10.40;51.70;11.40;96990.00;;;;5112074;28;20243;-63
2022/02/05 10:11:08;;;;;;;0.57;0.30;;;10.40;53.30;10.70;96978.00;;;;5109348;28;20254;-64
2022/02/05 10:14:24;;;;;;;0.30;0.30;;;10.20;51.50;10.70;96996.00;;;;5097832;28;20350;-65
2022/02/05 10:17:44;;;;;;;0.50;0.30;;;10.10;52.60;9.20;96981.00;;;;5092710;28;20207;-65
2022/02/05 10:20:59;;;;;;;0.30;0.20;;;9.60;50.50;9.30;96985.00;;;;5093898;28;20231;-65
2022/02/05 15:23:37;;;;;;;1.63;0.77;;;16.60;31.50;14.10;97145.00;;;;5068913;27;20298;-66
2022/02/05 15:26:30;;;;;;;2.63;0.50;;;15.50;33.60;13.40;97137.00;;;;5089098;27;20218;-66
2022/02/05 15:29:19;;;;;;;0.30;0.30;;;14.50;34.10;12.30;97142.00;;;;5086969;27;20245;-64
2022/02/05 15:32:08;;;;;;;3.17;0.70;;;13.50;34.00;11.80;97133.00;;;;5084196;28;20737;-64
2022/02/05 15:34:57;;;;;;;0.70;0.60;;;12.60;35.30;11.00;97124.00;;;;5085224;28;20267;-64
2022/02/05 15:37:47;;;;;;;0.40;0.40;;;11.70;35.90;10.70;97135.00;;;;5091289;27;20210;-64
2022/02/05 15:43:47;;;;;;;0.40;0.30;;;10.50;36.70;10.20;97138.00;;;;5090492;28;20207;-63
2022/02/05 15:46:36;;;;;;;0.40;0.40;;;10.10;37.30;9.60;97150.00;;;;5089674;27;20362;-63
2022/02/05 15:49:26;;;;;;;0.60;0.30;;;9.60;37.90;9.60;97151.00;;;;5087137;28;20713;-62
2022/02/05 15:52:16;;;;;;;0.47;0.40;;;9.30;38.60;9.50;97156.00;;;;5093536;28;20283;-63
2022/02/05 15:55:10;;;;;;;1.50;0.33;;;9.00;38.90;9.30;97163.00;;;;5089826;27;20206;-65
2022/02/05 15:58:03;;;;;;;0.77;0.30;;;8.80;38.40;8.90;97166.00;;;;5087952;27;20207;-63
2022/02/05 16:00:52;;;;;;;2.57;1.10;;;8.60;40.10;8.90;97182.00;;;;5086591;27;20223;-63
2022/02/05 16:03:41;;;;;;;1.33;0.70;;;8.40;40.20;8.20;97170.00;;;;5089141;28;20287;-64
2022/02/05 16:06:33;;;;;;;1.57;0.93;;;8.10;42.30;8.20;97170.00;;;;5086614;27;20352;-63
2022/02/05 16:09:22;;;;;;;9.37;1.10;;;7.90;42.80;8.00;97169.00;;;;5086982;27;21015;-63
2022/02/05 16:12:13;;;;;;;3.30;0.87;;;7.70;43.00;7.80;97169.00;;;;5081967;28;20229;-63
2022/02/05 16:15:02;;;;;;;3.30;0.97;;;7.50;43.50;7.70;97181.00;;;;5084940;28;20211;-63
2022/02/05 16:17:51;;;;;;;0.70;0.53;;;7.30;43.90;7.50;97185.00;;;;5084299;28;20224;-64
2022/02/05 16:20:40;;;;;;;0.40;0.40;;;7.20;43.70;7.50;97184.00;;;;5085215;28;20298;-65
2022/02/05 16:23:29;;;;;;;0.53;0.50;;;7.00;42.80;7.20;97177.00;;;;5085799;28;20210;-65
2022/02/05 16:26:18;;;;;;;0.40;0.40;;;6.90;43.90;7.30;97168.00;;;;5084814;28;20207;-65
2022/02/05 16:29:08;;;;;;;1.27;0.50;;;6.80;43.70;7.30;97170.00;;;;5084180;28;20717;-64
2022/02/05 16:31:59;;;;;;;1.20;0.63;;;6.70;43.70;7.30;97175.00;;;;5087009;28;20704;-64
2022/02/05 16:34:52;;;;;;;0.50;0.40;;;6.70;43.80;7.10;97183.00;;;;5086540;28;20198;-64
2022/02/05 16:37:42;;;;;;;0.40;0.40;;;6.60;45.00;7.10;97185.00;;;;5088273;28;20245;-64
2022/02/05 16:40:32;;;;;;;1.20;0.60;;;6.50;44.40;7.00;97184.00;;;;5089238;28;20210;-64
2022/02/05 16:43:20;;;;;;;0.60;0.60;;;6.40;44.50;6.90;97193.00;;;;5085011;28;20232;-64
2022/02/05 16:46:15;;;;;;;1.23;1.07;;;6.40;44.70;6.90;97195.00;;;;5085114;28;20206;-64
2022/02/05 16:49:04;;;;;;;1.93;1.10;;;6.30;45.00;6.60;97200.00;;;;5088190;28;20211;-64
2022/02/05 16:51:53;;;;;;;1.40;0.87;;;6.30;45.90;6.60;97201.00;;;;5084414;28;20225;-64
2022/02/05 16:54:42;;;;;;;7.33;1.70;;;6.10;45.90;6.40;97197.00;;;;5084050;28;20222;-64
2022/02/05 16:57:31;;;;;;;2.40;1.53;;;6.00;47.20;6.40;97199.00;;;;5085487;28;20685;-64
2022/02/05 17:00:20;;;;;;;2.90;1.00;;;5.90;47.10;6.20;97202.00;;;;5083979;28;21010;-64
2022/02/05 17:03:10;;;;;;;1.17;0.63;;;5.80;47.10;6.20;97200.00;;;;5082151;28;20351;-64
2022/02/05 17:05:59;;;;;;;0.60;0.60;;;5.70;46.50;6.30;97203.00;;;;5087784;28;20837;-63
2022/02/05 17:08:52;;;;;;;1.07;0.83;;;5.60;46.30;5.90;97206.00;;;;5083874;28;21404;-63
2022/02/05 17:11:41;;;;;;;4.57;1.87;;;5.60;46.40;5.10;97213.00;;;;5084343;28;20317;-63
2022/02/05 17:14:33;;;;;;;2.50;2.30;;;5.50;48.50;4.90;97202.00;;;;5085991;28;20240;-64
2022/02/05 17:17:23;;;;;;;4.60;2.80;;;5.30;49.50;5.00;97208.00;;;;5085111;28;20207;-64
2022/02/05 17:20:18;;;;;;;4.63;2.30;;;5.00;50.10;5.10;97213.00;;;;5084932;28;20217;-64
2022/02/05 17:23:07;;;;;;;1.37;1.13;;;4.80;50.40;4.60;97214.00;;;;5083819;28;20200;-63
2022/02/05 17:25:58;;;;;;;1.33;1.07;;;4.60;51.20;4.20;97209.00;;;;5086414;28;20207;-63
2022/02/05 17:28:47;;;;;;;1.20;1.03;;;4.50;51.40;3.80;97225.00;;;;5085523;28;20429;-63
2022/02/05 17:31:36;;;;;;;3.50;1.30;;;4.20;52.20;3.70;97242.00;;;;5087730;28;20652;-63
2022/02/05 17:34:25;;;;;;;;;;;4.00;53.00;3.60;97232.00;;;;5083110;28;20473;-64
2022/02/05 17:37:16;;;;;;;1.07;0.70;;;3.80;53.60;3.60;97242.00;;;;5085381;28;20026;-62
2022/02/05 17:40:06;;;;;;;0.90;0.80;;;3.60;54.00;3.40;97236.00;;;;5083405;28;20433;-63
2022/02/05 17:42:55;;;;;;;1.97;1.10;;;3.50;54.10;3.20;97248.00;;;;5085401;28;20416;-63
2022/02/05 17:45:44;;;;;;;2.17;1.40;;;3.40;54.40;3.50;97255.00;;;;5084086;28;20426;-62
2022/02/05 17:48:33;;;;;;;3.27;1.50;;;3.30;54.30;3.40;97258.00;;;;5080694;28;20428;-63
2022/02/05 17:51:23;;;;;;;5.07;2.57;;;3.20;54.60;3.40;97252.00;;;;5089233;28;20464;-63
2022/02/05 17:54:13;;;;;;;9.70;3.93;;;3.20;54.70;3.40;97262.00;;;;5085761;28;20475;-63
2022/02/05 17:57:03;;;;;;;7.00;3.87;;;3.10;54.80;3.40;97264.00;;;;5082436;28;20882;-64
2022/02/05 17:59:52;;;;;;;5.73;3.07;;;3.10;54.80;3.60;97272.00;;;;5083221;28;20536;-61
2022/02/05 18:02:42;;;;;;;4.50;3.67;;;3.10;54.60;3.30;97267.00;;;;5083140;28;20445;-63
2022/02/05 18:05:40;;;;;;;11.17;6.10;;;3.00;55.50;3.00;97278.00;;;;5087408;28;20635;-62
2022/02/05 18:08:35;;;;;;;13.17;9.10;;;3.00;56.00;2.40;97272.00;;;;5087260;28;20706;-62
2022/02/05 18:11:29;;;;;;;15.47;8.87;;;2.80;57.10;2.40;97283.00;;;;5088471;28;20559;-63
2022/02/05 18:14:32;;;;;;;13.40;7.47;;;2.50;57.60;2.50;97281.00;;;;5084919;28;20797;-62
2022/02/05 18:17:21;;;;;;;10.77;7.93;;;2.40;58.60;2.60;97286.00;;;;5087750;28;20452;-61
2022/02/05 18:20:11;;;;;;;7.17;4.83;;;2.30;58.10;2.50;97298.00;;;;5089167;28;20428;-62
2022/02/05 18:23:01;;;;;;;7.03;6.00;;;2.20;58.30;2.40;97297.00;;;;5088809;28;20899;-62
2022/02/05 18:25:50;;;;;;;7.93;5.00;;;2.10;58.40;2.40;97316.00;;;;5084735;28;22847;-62
2022/02/05 18:28:40;;;;;;;3.70;2.60;;;2.10;58.60;2.00;97311.00;;;;5085390;28;20481;-62
2022/02/05 18:31:29;;;;;;;14.80;9.07;;;2.00;59.60;2.00;97318.00;;;;5085390;28;20846;-62
2022/02/05 18:34:18;;;;;;;3.97;3.23;;;1.90;59.20;2.00;97318.00;;;;5087632;28;20449;-62
2022/02/05 18:37:07;;;;;;;2.83;2.37;;;1.80;59.10;2.00;97325.00;;;;5087401;28;20792;-62
2022/02/05 18:39:56;;;;;;;3.40;2.30;;;1.70;59.00;2.00;97322.00;;;;5092480;28;21238;-62
2022/02/05 18:42:45;;;;;;;2.10;1.90;;;1.70;59.40;2.10;97325.00;;;;5084459;28;20486;-60
2022/02/05 18:45:39;;;;;;;3.57;1.50;;;1.70;59.00;2.20;97329.00;;;;5084532;28;20943;-62
2022/02/05 18:48:28;;;;;;;4.23;2.00;;;1.70;58.90;2.00;97338.00;;;;5086756;28;20428;-62
2022/02/05 18:51:17;;;;;;;3.97;2.17;;;1.70;59.50;1.30;97330.00;;;;5087339;28;20900;-62
2022/02/05 18:54:08;;;;;;;1.90;1.67;;;1.60;61.00;1.60;97332.00;;;;5087288;28;20963;-60
2022/02/05 18:56:58;;;;;;;1.60;1.43;;;1.60;61.20;1.90;97327.00;;;;5088080;27;20460;-62
2022/02/05 18:59:53;;;;;;;3.53;2.60;;;1.50;61.20;1.40;97335.00;;;;5085551;28;20498;-62
2022/02/05 19:02:59;;;;;;;2.43;1.83;;;1.50;62.70;0.70;97331.00;;;;5089184;27;20451;-61
2022/02/05 19:12:24;;;;;;;3.00;1.50;;;1.00;64.00;1.40;97356.00;;;;5086336;28;21106;-64
2022/02/05 19:18:22;;;;;;;3.10;1.30;;;1.10;62.80;1.80;97362.00;;;;5091867;28;20443;-65
2022/02/05 19:21:11;;;;;;;2.33;1.67;;;1.20;62.80;1.20;97361.00;;;;5087486;27;20468;-64